Time;durP1;ratioP1;P1;durP2;ratioP2;P2;SDS_P1;SDS_P2;PMS_P1;PMS_P2;Temp;Humidity;BMP_temperature;BMP_pressure;BME280_temperature;BME280_humidity;BME280_pressure;Samples;Min_cycle;Max_cycle;Signal;HPM_P1;HPM_P2
2021/11/16 00:00:53;;;;;;;;;;;9.80;99.90;;;;;;5098751;28;19938;-75
2021/11/16 00:03:20;;;;;;;;;;;9.80;99.90;;;;;;5098374;28;19938;-75
2021/11/16 00:05:46;;;;;;;;;;;9.70;99.90;;;;;;5098578;28;19924;-75
2021/11/16 00:08:13;;;;;;;;;;;9.70;99.90;;;;;;5098341;28;19941;-75
2021/11/16 00:10:40;;;;;;;;;;;9.60;99.90;;;;;;5098247;28;19981;-75
2021/11/16 00:13:10;;;;;;;;;;;9.50;99.90;;;;;;5098222;28;19924;-75
2021/11/16 00:15:37;;;;;;;;;;;9.50;99.90;;;;;;5098218;28;19932;-75
2021/11/16 00:18:06;;;;;;;;;;;9.40;99.90;;;;;;5098163;28;19934;-75
2021/11/16 00:20:35;;;;;;;;;;;9.30;99.90;;;;;;5097991;28;20344;-75
2021/11/16 00:23:01;;;;;;;;;;;9.30;99.90;;;;;;5097958;28;20271;-76
2021/11/16 00:25:34;;;;;;;;;;;9.20;99.90;;;;;;5098027;28;20366;-75
2021/11/16 00:28:01;;;;;;;;;;;9.20;99.90;;;;;;5097817;28;19932;-75
2021/11/16 00:30:28;;;;;;;;;;;9.10;99.90;;;;;;5098206;28;19924;-76
2021/11/16 00:32:54;;;;;;;;;;;9.10;99.90;;;;;;5097999;28;19924;-76
2021/11/16 00:35:23;;;;;;;;;;;9.10;99.90;;;;;;5097675;28;20234;-76
2021/11/16 00:37:49;;;;;;;;;;;9.10;99.90;;;;;;5097917;28;20015;-75
2021/11/16 00:40:19;;;;;;;;;;;9.00;99.90;;;;;;5097858;28;19924;-75
2021/11/16 00:42:46;;;;;;;;;;;9.00;99.90;;;;;;5097870;28;20022;-75
2021/11/16 00:45:13;;;;;;;;;;;9.00;99.90;;;;;;5097588;28;19946;-75
2021/11/16 00:47:40;;;;;;;;;;;8.90;99.90;;;;;;5097857;28;19977;-75
2021/11/16 00:50:07;;;;;;;;;;;8.90;99.90;;;;;;5096288;28;19924;-75
2021/11/16 00:52:35;;;;;;;;;;;8.90;99.90;;;;;;5097435;28;19931;-75
2021/11/16 00:55:02;;;;;;;;;;;8.90;99.90;;;;;;5097384;28;19924;-76
2021/11/16 00:57:29;;;;;;;;;;;8.90;99.90;;;;;;5097533;28;19924;-75
2021/11/16 00:59:56;;;;;;;;;;;8.80;99.90;;;;;;5097492;28;19924;-75
2021/11/16 01:02:23;;;;;;;;;;;8.80;99.90;;;;;;5097567;28;19934;-75
2021/11/16 01:04:51;;;;;;;;;;;8.80;99.90;;;;;;5097244;28;20370;-76
2021/11/16 01:07:18;;;;;;;;;;;8.80;99.90;;;;;;5097548;28;19923;-76
2021/11/16 01:09:46;;;;;;;;;;;8.90;99.90;;;;;;5097359;28;20363;-76
2021/11/16 01:12:13;;;;;;;;;;;8.90;99.90;;;;;;5097108;28;19924;-75
2021/11/16 01:14:40;;;;;;;;;;;8.90;99.90;;;;;;5096972;28;19932;-75
2021/11/16 01:17:07;;;;;;;;;;;8.90;99.90;;;;;;5096894;28;19930;-74
2021/11/16 01:19:34;;;;;;;;;;;9.00;99.90;;;;;;5096791;28;19923;-76
2021/11/16 01:22:01;;;;;;;;;;;9.00;99.90;;;;;;5097762;28;19938;-76
2021/11/16 01:24:28;;;;;;;;;;;10.30;99.90;;;;;;5097108;28;19965;-75
2021/11/16 01:26:56;;;;;;;;;;;9.00;99.90;;;;;;5096574;28;19928;-75
2021/11/16 01:29:24;;;;;;;;;;;9.00;99.90;;;;;;5096641;28;20383;-75
2021/11/16 01:31:54;;;;;;;;;;;9.00;99.90;;;;;;5097769;28;19924;-77
2021/11/16 01:34:26;;;;;;;;;;;9.00;99.90;;;;;;5098548;28;19939;-74
2021/11/16 01:36:53;;;;;;;;;;;9.00;99.90;;;;;;5096651;28;19934;-76
2021/11/16 01:39:19;;;;;;;;;;;9.00;99.90;;;;;;5096828;28;19946;-75
2021/11/16 01:41:46;;;;;;;;;;;9.00;99.90;;;;;;5096547;28;19935;-77
2021/11/16 01:44:15;;;;;;;;;;;9.00;99.90;;;;;;5096648;28;20237;-75
2021/11/16 01:46:42;;;;;;;;;;;9.10;99.90;;;;;;5096335;28;19934;-75
2021/11/16 01:49:09;;;;;;;;;;;9.10;99.90;;;;;;5104425;28;19968;-76
2021/11/16 01:51:36;;;;;;;;;;;9.10;99.90;;;;;;5093747;28;19924;-75
2021/11/16 01:54:04;;;;;;;;;;;9.10;99.90;;;;;;5096279;28;19925;-75
2021/11/16 01:56:31;;;;;;;;;;;9.10;99.90;;;;;;5095987;28;19928;-75
2021/11/16 01:58:59;;;;;;;;;;;9.10;99.90;;;;;;5096482;28;19930;-75
2021/11/16 02:01:28;;;;;;;;;;;9.20;99.90;;;;;;5096174;28;20363;-75
2021/11/16 02:03:56;;;;;;;;;;;9.20;99.90;;;;;;5096171;28;19924;-75
2021/11/16 02:06:23;;;;;;;;;;;9.20;99.90;;;;;;5096354;28;19932;-76
2021/11/16 02:08:50;;;;;;;;;;;9.20;99.90;;;;;;5095166;28;19928;-75
2021/11/16 02:11:17;;;;;;;;;;;9.20;99.90;;;;;;5095714;28;20252;-75
2021/11/16 02:13:44;;;;;;;;;;;9.20;99.90;;;;;;5096151;28;19931;-76
2021/11/16 02:16:13;;;;;;;;;;;9.20;99.90;;;;;;5095833;28;20354;-76
2021/11/16 02:18:42;;;;;;;;;;;9.10;99.90;;;;;;5095556;28;20348;-76
2021/11/16 02:21:11;;;;;;;;;;;9.10;99.90;;;;;;5095665;28;19931;-75
2021/11/16 02:23:39;;;;;;;;;;;9.10;99.90;;;;;;5095634;28;19975;-76
2021/11/16 02:26:06;;;;;;;;;;;9.10;99.90;;;;;;5095780;28;20314;-76
2021/11/16 02:28:33;;;;;;;;;;;9.00;99.90;;;;;;5095621;28;19950;-75
2021/11/16 02:31:00;;;;;;;;;;;9.10;99.90;;;;;;5095719;28;19950;-75
2021/11/16 02:33:27;;;;;;;;;;;9.10;99.90;;;;;;5095703;28;20010;-76
2021/11/16 02:35:54;;;;;;;;;;;9.00;99.90;;;;;;5095523;28;19935;-75
2021/11/16 02:38:23;;;;;;;;;;;9.00;99.90;;;;;;5095381;28;20355;-75
2021/11/16 02:40:52;;;;;;;;;;;9.00;99.90;;;;;;5095654;28;20367;-76
2021/11/16 02:43:19;;;;;;;;;;;9.00;99.90;;;;;;5095457;28;19931;-75
2021/11/16 02:45:46;;;;;;;;;;;9.00;99.90;;;;;;5095388;28;19924;-76
2021/11/16 02:48:14;;;;;;;;;;;9.00;99.90;;;;;;5095233;28;19954;-76
2021/11/16 02:50:41;;;;;;;;;;;9.00;99.90;;;;;;5095112;28;19932;-75
2021/11/16 02:53:08;;;;;;;;;;;9.00;99.90;;;;;;5095164;28;19989;-75
2021/11/16 02:55:37;;;;;;;;;;;9.00;99.90;;;;;;5095464;28;19971;-76
2021/11/16 02:58:04;;;;;;;;;;;9.00;99.90;;;;;;5095228;28;19935;-76
2021/11/16 03:00:31;;;;;;;;;;;9.00;99.90;;;;;;5095562;28;20007;-76
2021/11/16 03:02:58;;;;;;;;;;;9.00;99.90;;;;;;5095244;28;19924;-75
2021/11/16 03:05:31;;;;;;;;;;;9.00;99.90;;;;;;5095176;28;19924;-76
2021/11/16 03:07:58;;;;;;;;;;;9.00;99.90;;;;;;5095147;28;20010;-75
2021/11/16 03:10:26;;;;;;;;;;;9.00;99.90;;;;;;5095094;28;19924;-75
2021/11/16 03:12:54;;;;;;;;;;;9.00;99.90;;;;;;5095129;28;19924;-76
2021/11/16 03:15:21;;;;;;;;;;;9.00;99.90;;;;;;5099320;28;19932;-76
2021/11/16 03:17:48;;;;;;;;;;;9.00;99.90;;;;;;5099182;28;20374;-76
2021/11/16 03:20:16;;;;;;;;;;;9.00;99.90;;;;;;5099281;28;19935;-76
2021/11/16 03:22:43;;;;;;;;;;;9.00;99.90;;;;;;5099148;28;19935;-75
2021/11/16 03:25:11;;;;;;;;;;;9.00;99.90;;;;;;5098993;28;20345;-75
2021/11/16 03:27:40;;;;;;;;;;;9.00;99.90;;;;;;5098970;28;20275;-76
2021/11/16 03:30:09;;;;;;;;;;;9.10;99.90;;;;;;5099201;28;19924;-76
2021/11/16 03:32:36;;;;;;;;;;;9.10;99.90;;;;;;5098942;28;19924;-75
2021/11/16 03:35:03;;;;;;;;;;;9.10;99.90;;;;;;5098992;28;19924;-76
2021/11/16 03:37:31;;;;;;;;;;;9.10;99.90;;;;;;5098864;28;19925;-75
2021/11/16 03:39:58;;;;;;;;;;;9.20;99.90;;;;;;5098867;28;19924;-76
2021/11/16 03:42:26;;;;;;;;;;;9.10;99.90;;;;;;5098948;28;19924;-75
2021/11/16 03:44:52;;;;;;;;;;;9.20;99.90;;;;;;5098994;28;19924;-76
2021/11/16 03:47:21;;;;;;;;;;;9.20;99.90;;;;;;5098954;28;20346;-76
2021/11/16 03:49:48;;;;;;;;;;;9.20;99.90;;;;;;5098620;28;19924;-76
2021/11/16 03:52:18;;;;;;;;;;;9.20;99.90;;;;;;5098712;28;19924;-75
2021/11/16 03:54:45;;;;;;;;;;;9.20;99.90;;;;;;5098645;28;19924;-76
2021/11/16 03:57:12;;;;;;;;;;;9.20;99.90;;;;;;5098562;28;19928;-76
2021/11/16 03:59:39;;;;;;;;;;;9.20;99.90;;;;;;5098595;28;20247;-76
2021/11/16 04:02:06;;;;;;;;;;;9.20;99.90;;;;;;5098635;28;19989;-75
2021/11/16 04:04:34;;;;;;;;;;;9.20;99.90;;;;;;5098554;28;19924;-76
2021/11/16 04:07:01;;;;;;;;;;;9.20;99.90;;;;;;5098388;28;19946;-75
2021/11/16 04:09:28;;;;;;;;;;;9.20;99.90;;;;;;5098201;28;19924;-75
2021/11/16 04:11:54;;;;;;;;;;;9.20;99.90;;;;;;5098149;28;19930;-76
2021/11/16 04:14:22;;;;;;;;;;;9.20;99.90;;;;;;5098471;28;19943;-76
2021/11/16 04:16:51;;;;;;;;;;;9.10;99.90;;;;;;5098095;28;19924;-76
2021/11/16 04:19:18;;;;;;;;;;;9.10;99.90;;;;;;5098006;28;19924;-76
2021/11/16 04:21:47;;;;;;;;;;;9.10;99.90;;;;;;5098092;28;19931;-76
2021/11/16 04:24:14;;;;;;;;;;;9.20;99.90;;;;;;5098100;28;20325;-76
2021/11/16 04:26:40;;;;;;;;;;;9.10;99.90;;;;;;5097957;28;19924;-75
2021/11/16 04:29:07;;;;;;;;;;;9.10;99.90;;;;;;5097715;28;19924;-76
2021/11/16 04:31:35;;;;;;;;;;;9.10;99.90;;;;;;5097668;28;19942;-75
2021/11/16 04:34:03;;;;;;;;;;;9.10;99.90;;;;;;5097532;28;19924;-76
2021/11/16 04:36:31;;;;;;;;;;;9.10;99.90;;;;;;5097688;28;20422;-76
2021/11/16 04:38:59;;;;;;;;;;;9.20;99.90;;;;;;5097041;28;19924;-76
2021/11/16 04:41:26;;;;;;;;;;;9.20;99.90;;;;;;5097679;28;19925;-76
2021/11/16 04:43:55;;;;;;;;;;;9.20;99.90;;;;;;5097613;28;19924;-76
2021/11/16 04:46:23;;;;;;;;;;;9.20;99.90;;;;;;5098035;28;19932;-76
2021/11/16 04:48:59;;;;;;;;;;;9.20;99.90;;;;;;5097563;28;19924;-75
2021/11/16 04:51:44;;;;;;;;;;;9.20;99.90;;;;;;5097605;28;19924;-76
2021/11/16 04:54:31;;;;;;;;;;;9.20;99.90;;;;;;5097128;28;19928;-75
2021/11/16 04:59:48;;;;;;;;;;;9.20;99.90;;;;;;5097396;28;19931;-75
2021/11/16 05:04:59;;;;;;;;;;;9.20;99.90;;;;;;5097345;28;20080;-76
2021/11/16 05:07:27;;;;;;;;;;;9.20;99.90;;;;;;5097352;28;20361;-75
2021/11/16 05:09:55;;;;;;;;;;;9.20;99.90;;;;;;5097120;28;19924;-75
2021/11/16 05:12:22;;;;;;;;;;;9.20;99.90;;;;;;5096962;28;20374;-75
2021/11/16 05:14:49;;;;;;;;;;;9.20;99.90;;;;;;5096975;28;19924;-75
2021/11/16 05:17:16;;;;;;;;;;;9.20;99.90;;;;;;5097036;28;19932;-75
2021/11/16 05:19:43;;;;;;;;;;;9.20;99.90;;;;;;5096786;28;19989;-76
2021/11/16 05:22:10;;;;;;;;;;;9.20;99.90;;;;;;5096891;28;19934;-75
2021/11/16 05:24:37;;;;;;;;;;;9.20;99.90;;;;;;5096828;28;20371;-75
2021/11/16 05:27:05;;;;;;;;;;;9.20;99.90;;;;;;5096507;28;19924;-75
2021/11/16 05:29:32;;;;;;;;;;;9.20;99.90;;;;;;5096702;28;19930;-75
2021/11/16 05:31:59;;;;;;;;;;;9.20;99.90;;;;;;5096875;28;19935;-76
2021/11/16 05:34:26;;;;;;;;;;;9.30;99.90;;;;;;5096159;28;19924;-76
2021/11/16 05:36:53;;;;;;;;;;;9.30;99.90;;;;;;5096013;28;20276;-75
2021/11/16 05:39:19;;;;;;;;;;;9.30;99.90;;;;;;5096653;28;19924;-76
2021/11/16 05:41:47;;;;;;;;;;;9.30;99.90;;;;;;5096513;28;19924;-75
2021/11/16 05:44:15;;;;;;;;;;;9.30;99.90;;;;;;5096603;28;19935;-75
2021/11/16 05:46:42;;;;;;;;;;;9.30;99.90;;;;;;5096357;28;19935;-76
2021/11/16 05:49:09;;;;;;;;;;;9.30;99.90;;;;;;5096377;28;19930;-76
2021/11/16 05:51:36;;;;;;;;;;;9.30;99.90;;;;;;5096450;28;19924;-76
2021/11/16 05:54:03;;;;;;;;;;;9.30;99.90;;;;;;5096252;28;20318;-76
2021/11/16 05:56:31;;;;;;;;;;;9.30;99.90;;;;;;5096221;28;19924;-76
2021/11/16 05:58:58;;;;;;;;;;;9.30;99.90;;;;;;5096302;28;19924;-76
2021/11/16 06:01:26;;;;;;;;;;;9.30;99.90;;;;;;5096470;28;19924;-76
2021/11/16 06:03:53;;;;;;;;;;;9.30;99.90;;;;;;5096182;28;19947;-75
2021/11/16 06:06:20;;;;;;;;;;;9.30;99.90;;;;;;5096037;28;20356;-76
2021/11/16 06:08:49;;;;;;;;;;;9.30;99.90;;;;;;5090786;28;19932;-76
2021/11/16 06:11:16;;;;;;;;;;;9.30;99.90;;;;;;5095899;28;19934;-76
2021/11/16 06:13:42;;;;;;;;;;;9.30;99.90;;;;;;5095988;28;19993;-76
2021/11/16 06:16:09;;;;;;;;;;;9.30;99.90;;;;;;5095834;28;19924;-76
2021/11/16 06:18:37;;;;;;;;;;;9.30;99.90;;;;;;5095817;28;19924;-76
2021/11/16 06:21:04;;;;;;;;;;;9.30;99.90;;;;;;5095598;28;19924;-76
2021/11/16 06:23:33;;;;;;;;;;;9.30;99.90;;;;;;5095685;28;19924;-76
2021/11/16 06:26:00;;;;;;;;;;;9.30;99.90;;;;;;5095676;28;19932;-76
2021/11/16 06:28:27;;;;;;;;;;;9.30;99.90;;;;;;5095464;28;19924;-76
2021/11/16 06:30:53;;;;;;;;;;;9.30;99.90;;;;;;5095673;28;19923;-76
2021/11/16 06:33:20;;;;;;;;;;;9.30;99.90;;;;;;5095819;28;19950;-76
2021/11/16 06:35:49;;;;;;;;;;;9.40;99.90;;;;;;5095630;28;19932;-76
2021/11/16 06:38:16;;;;;;;;;;;9.40;99.90;;;;;;5095323;28;20356;-76
2021/11/16 06:40:47;;;;;;;;;;;9.40;99.90;;;;;;5095464;28;19928;-76
2021/11/16 06:43:19;;;;;;;;;;;9.40;99.90;;;;;;5095415;28;19924;-76
2021/11/16 06:45:46;;;;;;;;;;;9.40;99.90;;;;;;5095349;28;19930;-76
2021/11/16 06:48:13;;;;;;;;;;;9.40;99.90;;;;;;5094182;28;19935;-76
2021/11/16 06:50:40;;;;;;;;;;;9.40;99.90;;;;;;5095201;28;19968;-76
2021/11/16 06:53:09;;;;;;;;;;;9.40;99.90;;;;;;5095287;28;19935;-76
2021/11/16 06:55:35;;;;;;;;;;;9.40;99.90;;;;;;5095393;28;19924;-76
2021/11/16 06:58:02;;;;;;;;;;;9.40;99.90;;;;;;5095093;28;20391;-76
2021/11/16 07:00:32;;;;;;;;;;;9.50;99.90;;;;;;5095425;28;19935;-76
2021/11/16 07:02:58;;;;;;;;;;;9.50;99.90;;;;;;5095195;28;20363;-76
2021/11/16 07:05:25;;;;;;;;;;;9.50;99.90;;;;;;5095403;28;20137;-76
2021/11/16 07:07:52;;;;;;;;;;;9.50;99.90;;;;;;5095100;28;19927;-76
2021/11/16 07:10:21;;;;;;;;;;;9.50;99.90;;;;;;5095232;28;19924;-76
2021/11/16 07:12:48;;;;;;;;;;;9.50;99.90;;;;;;5095132;28;20273;-76
2021/11/16 07:15:15;;;;;;;;;;;9.50;99.90;;;;;;5095113;28;20356;-76
2021/11/16 07:17:42;;;;;;;;;;;9.50;99.90;;;;;;5094885;28;20099;-76
2021/11/16 07:20:10;;;;;;;;;;;9.50;99.90;;;;;;5094862;28;20252;-76
2021/11/16 07:22:37;;;;;;;;;;;9.50;99.90;;;;;;5095115;28;19932;-76
2021/11/16 07:25:06;;;;;;;;;;;9.50;99.90;;;;;;5095013;28;19935;-76
2021/11/16 07:27:35;;;;;;;;;;;9.50;99.90;;;;;;5094772;28;19928;-76
2021/11/16 07:30:02;;;;;;;;;;;9.60;99.90;;;;;;5095038;28;19924;-76
2021/11/16 07:32:29;;;;;;;;;;;9.50;99.90;;;;;;5094959;28;19943;-76
2021/11/16 07:34:56;;;;;;;;;;;9.60;99.90;;;;;;5095185;28;19925;-76
2021/11/16 07:37:25;;;;;;;;;;;9.60;99.90;;;;;;5094940;28;20023;-76
2021/11/16 07:39:53;;;;;;;;;;;9.60;99.90;;;;;;5094899;28;19936;-76
2021/11/16 07:42:20;;;;;;;;;;;9.60;99.90;;;;;;5094886;28;19924;-76
2021/11/16 07:45:14;;;;;;;;;;;9.60;99.90;;;;;;5094822;28;20352;-76
2021/11/16 07:47:44;;;;;;;;;;;9.60;99.90;;;;;;5013284;28;19925;-76
2021/11/16 07:50:11;;;;;;;;;;;9.60;99.90;;;;;;5013082;28;19964;-76
2021/11/16 07:52:38;;;;;;;;;;;9.60;99.90;;;;;;5013256;28;20056;-76
2021/11/16 07:55:05;;;;;;;;;;;9.60;99.90;;;;;;5013324;28;20369;-76
2021/11/16 07:57:34;;;;;;;;;;;9.60;99.90;;;;;;5013115;28;19925;-77
2021/11/16 08:00:01;;;;;;;;;;;9.60;99.90;;;;;;5014656;28;20271;-76
2021/11/16 08:02:30;;;;;;;;;;;9.60;99.90;;;;;;5016830;28;20347;-76
2021/11/16 08:05:08;;;;;;;;;;;9.60;99.90;;;;;;5016972;28;19925;-76
2021/11/16 08:07:47;;;;;;;;;;;9.60;99.90;;;;;;5016846;28;19929;-76
2021/11/16 08:10:22;;;;;;;;;;;9.70;99.90;;;;;;5017061;28;19926;-76
2021/11/16 08:12:51;;;;;;;;;;;9.70;99.90;;;;;;5016529;28;19926;-76
2021/11/16 08:15:18;;;;;;;;;;;9.70;99.90;;;;;;5016617;28;19925;-76
2021/11/16 08:17:46;;;;;;;;;;;9.70;99.90;;;;;;5016547;28;20019;-76
2021/11/16 08:20:15;;;;;;;;;;;9.70;99.90;;;;;;5016449;28;20284;-76
2021/11/16 08:22:42;;;;;;;;;;;9.70;99.90;;;;;;5031880;28;20237;-76
2021/11/16 08:25:09;;;;;;;;;;;9.70;99.90;;;;;;5097977;28;20411;-76
2021/11/16 08:27:37;;;;;;;;;;;9.80;99.90;;;;;;5097819;28;19924;-76
2021/11/16 08:30:04;;;;;;;;;;;9.80;99.90;;;;;;5098000;28;19928;-76
2021/11/16 08:32:35;;;;;;;;;;;9.80;99.90;;;;;;5097838;28;19997;-76
2021/11/16 08:35:03;;;;;;;;;;;9.80;99.90;;;;;;5097798;28;20014;-76
2021/11/16 08:37:37;;;;;;;;;;;9.90;99.90;;;;;;5097831;28;19959;-76
2021/11/16 08:40:04;;;;;;;;;;;9.90;99.90;;;;;;5097945;28;19928;-76
2021/11/16 08:42:32;;;;;;;;;;;10.00;99.90;;;;;;5097638;28;19934;-76
2021/11/16 08:45:00;;;;;;;;;;;10.00;99.90;;;;;;5097767;28;19924;-76
2021/11/16 08:47:27;;;;;;;;;;;10.00;99.90;;;;;;5097622;28;19923;-76
2021/11/16 08:49:54;;;;;;;;;;;10.10;99.90;;;;;;5097358;28;19932;-76
2021/11/16 08:52:22;;;;;;;;;;;10.10;99.90;;;;;;5097469;28;19928;-76
2021/11/16 08:55:00;;;;;;;;;;;10.10;99.90;;;;;;5097589;28;19974;-76
2021/11/16 08:57:28;;;;;;;;;;;10.20;99.90;;;;;;5097372;28;19924;-76
2021/11/16 08:59:55;;;;;;;;;;;10.20;99.90;;;;;;5097574;28;19967;-76
2021/11/16 09:02:22;;;;;;;;;;;10.20;99.90;;;;;;5097344;28;20287;-76
2021/11/16 09:04:49;;;;;;;;;;;10.30;99.90;;;;;;5097193;28;19934;-76
2021/11/16 09:07:21;;;;;;;;;;;10.30;99.90;;;;;;5097178;28;19924;-77
2021/11/16 09:09:56;;;;;;;;;;;10.40;99.90;;;;;;5097297;28;19924;-76
2021/11/16 09:12:33;;;;;;;;;;;10.40;99.90;;;;;;5096162;28;20347;-77
2021/11/16 09:15:02;;;;;;;;;;;10.40;99.90;;;;;;5097129;28;19935;-76
2021/11/16 09:17:29;;;;;;;;;;;10.40;99.90;;;;;;5097261;28;19993;-76
2021/11/16 09:19:56;;;;;;;;;;;10.40;99.90;;;;;;5096802;28;20263;-76
2021/11/16 09:22:23;;;;;;;;;;;10.40;99.90;;;;;;5096989;28;19942;-76
2021/11/16 09:24:50;;;;;;;;;;;10.40;99.90;;;;;;5096849;28;19930;-76
2021/11/16 09:27:36;;;;;;;;;;;10.40;99.90;;;;;;5096671;28;19935;-77
2021/11/16 09:30:04;;;;;;;;;;;10.40;99.90;;;;;;5096844;28;20241;-77
2021/11/16 09:32:31;;;;;;;;;;;10.40;99.90;;;;;;5096825;28;19924;-76
2021/11/16 09:34:58;;;;;;;;;;;10.40;99.90;;;;;;5096765;28;19935;-77
2021/11/16 09:37:25;;;;;;;;;;;10.40;99.90;;;;;;5096595;28;19928;-77
2021/11/16 09:39:52;;;;;;;;;;;10.40;99.90;;;;;;5096687;28;19947;-77
2021/11/16 09:42:21;;;;;;;;;;;10.40;99.90;;;;;;5096474;28;19931;-77
2021/11/16 09:44:49;;;;;;;;;;;10.40;99.90;;;;;;5096547;28;19924;-77
2021/11/16 09:47:17;;;;;;;;;;;10.30;99.90;;;;;;5096425;28;20023;-76
2021/11/16 09:49:44;;;;;;;;;;;10.40;99.90;;;;;;5096219;28;20276;-77
2021/11/16 09:52:12;;;;;;;;;;;10.40;99.90;;;;;;5095310;28;20253;-77
2021/11/16 09:54:46;;;;;;;;;;;10.30;99.90;;;;;;5096128;28;19932;-77
2021/11/16 09:57:14;;;;;;;;;;;10.40;99.90;;;;;;5096424;28;19939;-77
2021/11/16 09:59:41;;;;;;;;;;;10.30;99.90;;;;;;5096147;28;20332;-76
2021/11/16 10:02:08;;;;;;;;;;;10.40;99.90;;;;;;5095758;28;19935;-76
2021/11/16 10:04:45;;;;;;;;;;;10.40;99.90;;;;;;5095984;28;20344;-77
2021/11/16 10:07:13;;;;;;;;;;;10.40;99.90;;;;;;5096318;28;19985;-76
2021/11/16 10:09:42;;;;;;;;;;;10.40;99.90;;;;;;5096010;28;19924;-77
2021/11/16 10:12:09;;;;;;;;;;;10.40;99.90;;;;;;5096135;28;19931;-77
2021/11/16 10:14:36;;;;;;;;;;;10.50;99.90;;;;;;5096041;28;19935;-77
2021/11/16 10:17:04;;;;;;;;;;;10.50;99.90;;;;;;5095941;28;19924;-76
2021/11/16 10:19:31;;;;;;;;;;;10.50;99.90;;;;;;5095648;28;19924;-76
2021/11/16 10:21:59;;;;;;;;;;;10.50;99.90;;;;;;5096028;28;19935;-76
2021/11/16 10:24:29;;;;;;;;;;;10.60;99.90;;;;;;5095938;28;19924;-77
2021/11/16 10:27:00;;;;;;;;;;;10.50;99.90;;;;;;5095658;28;19928;-77
2021/11/16 10:29:27;;;;;;;;;;;10.60;99.90;;;;;;5095679;28;19928;-77
2021/11/16 10:31:54;;;;;;;;;;;10.60;99.90;;;;;;5095778;28;19924;-77
2021/11/16 10:34:25;;;;;;;;;;;10.70;99.90;;;;;;5095580;28;19928;-77
2021/11/16 10:37:05;;;;;;;;;;;10.70;99.90;;;;;;5094709;28;19931;-76
2021/11/16 10:39:32;;;;;;;;;;;10.80;99.90;;;;;;5095576;28;19924;-77
2021/11/16 10:42:04;;;;;;;;;;;10.80;99.90;;;;;;5095536;28;19977;-77
2021/11/16 10:44:31;;;;;;;;;;;10.90;99.90;;;;;;5095500;28;19924;-79
2021/11/16 10:47:01;;;;;;;;;;;10.90;99.90;;;;;;5095392;28;19934;-77
2021/11/16 10:49:28;;;;;;;;;;;11.00;99.90;;;;;;5095485;28;20010;-77
2021/11/16 10:51:55;;;;;;;;;;;11.00;99.90;;;;;;5095537;28;20027;-78
2021/11/16 10:54:23;;;;;;;;;;;11.10;99.90;;;;;;5095426;28;19928;-76
2021/11/16 10:56:51;;;;;;;;;;;11.10;99.90;;;;;;5095332;28;20259;-76
2021/11/16 10:59:19;;;;;;;;;;;11.10;99.90;;;;;;5094373;28;20381;-77
2021/11/16 11:01:46;;;;;;;;;;;11.20;99.90;;;;;;5095247;28;19934;-77
2021/11/16 11:04:14;;;;;;;;;;;11.20;99.90;;;;;;5095251;28;19924;-77
2021/11/16 11:06:43;;;;;;;;;;;11.20;99.90;;;;;;5095133;28;19924;-77
2021/11/16 11:09:10;;;;;;;;;;;11.20;99.90;;;;;;5095194;28;20409;-78
2021/11/16 11:11:39;;;;;;;;;;;11.20;99.90;;;;;;5095153;28;20378;-76
2021/11/16 11:14:06;;;;;;;;;;;11.30;99.90;;;;;;5095194;28;19941;-77
2021/11/16 11:16:34;;;;;;;;;;;11.30;99.90;;;;;;5095025;28;19924;-77
2021/11/16 11:19:01;;;;;;;;;;;11.30;99.90;;;;;;5095031;28;19924;-76
2021/11/16 11:21:33;;;;;;;;;;;11.40;99.90;;;;;;5095058;28;19924;-76
2021/11/16 11:24:05;;;;;;;;;;;11.40;99.90;;;;;;5095194;28;20015;-77
2021/11/16 11:26:39;;;;;;;;;;;11.40;99.90;;;;;;5094767;28;19931;-77
2021/11/16 11:29:21;;;;;;;;;;;11.40;99.90;;;;;;5094862;28;19924;-77
2021/11/16 11:31:50;;;;;;;;;;;11.40;99.90;;;;;;5095100;28;19935;-77
2021/11/16 11:34:17;;;;;;;;;;;11.40;99.90;;;;;;5095381;28;20020;-77
2021/11/16 11:36:44;;;;;;;;;;;11.40;99.90;;;;;;5099052;28;19924;-76
2021/11/16 11:39:23;;;;;;;;;;;11.40;99.90;;;;;;5098725;28;19969;-76
2021/11/16 11:41:50;;;;;;;;;;;11.40;99.90;;;;;;5098931;28;19925;-76
2021/11/16 11:44:20;;;;;;;;;;;11.40;99.90;;;;;;5098848;28;19934;-77
2021/11/16 11:46:56;;;;;;;;;;;11.40;99.90;;;;;;5098908;28;20299;-76
2021/11/16 11:49:23;;;;;;;;;;;11.40;99.90;;;;;;5098580;28;19932;-77
2021/11/16 11:51:50;;;;;;;;;;;11.40;99.90;;;;;;5098822;28;19924;-77
2021/11/16 11:54:19;;;;;;;;;;;11.40;99.90;;;;;;5098733;28;19931;-76
2021/11/16 11:56:46;;;;;;;;;;;11.40;99.90;;;;;;5098625;28;19928;-76
2021/11/16 11:59:13;;;;;;;;;;;11.40;99.90;;;;;;5098471;28;19934;-77
2021/11/16 12:01:42;;;;;;;;;;;11.30;99.90;;;;;;5098453;28;19986;-77
2021/11/16 12:04:10;;;;;;;;;;;11.40;99.90;;;;;;5098675;28;19924;-76
2021/11/16 12:06:37;;;;;;;;;;;11.30;99.90;;;;;;5098662;28;19924;-77
2021/11/16 12:09:04;;;;;;;;;;;11.30;99.90;;;;;;5098521;28;19924;-76
2021/11/16 12:11:31;;;;;;;;;;;11.30;99.90;;;;;;5098329;28;19934;-77
2021/11/16 12:13:58;;;;;;;;;;;11.20;99.90;;;;;;5098314;28;19932;-77
2021/11/16 12:16:29;;;;;;;;;;;11.20;99.90;;;;;;5098194;28;20287;-76
2021/11/16 12:19:04;;;;;;;;;;;11.10;99.90;;;;;;5098102;28;19924;-77
2021/11/16 12:21:31;;;;;;;;;;;11.20;99.90;;;;;;5097627;28;19943;-77
2021/11/16 12:23:59;;;;;;;;;;;11.10;99.90;;;;;;5097320;28;19950;-77
2021/11/16 12:26:26;;;;;;;;;;;11.10;99.90;;;;;;5097700;28;20034;-76
2021/11/16 12:28:52;;;;;;;;;;;11.20;99.90;;;;;;5098055;28;20011;-76
2021/11/16 12:31:23;;;;;;;;;;;11.20;99.90;;;;;;5097815;28;19931;-78
2021/11/16 12:33:50;;;;;;;;;;;11.20;99.90;;;;;;5098124;28;20294;-77
2021/11/16 12:36:18;;;;;;;;;;;11.20;99.90;;;;;;5098001;28;20018;-76
2021/11/16 12:38:46;;;;;;;;;;;11.30;99.90;;;;;;5097862;28;19942;-77
2021/11/16 12:41:31;;;;;;;;;;;11.30;99.90;;;;;;5097729;28;19925;-76
2021/11/16 12:43:58;;;;;;;;;;;11.20;99.90;;;;;;5096950;28;19938;-77
2021/11/16 12:46:27;;;;;;;;;;;11.30;99.90;;;;;;5096274;28;19928;-77
2021/11/16 12:48:55;;;;;;;;;;;11.30;99.90;;;;;;5097746;28;19940;-77
2021/11/16 12:51:24;;;;;;;;;;;11.20;99.90;;;;;;5097569;28;20039;-76
2021/11/16 12:53:51;;;;;;;;;;;11.20;99.90;;;;;;5097563;28;19935;-77
2021/11/16 12:56:18;;;;;;;;;;;11.20;99.90;;;;;;5097515;28;19931;-77
2021/11/16 12:58:48;;;;;;;;;;;11.20;99.90;;;;;;5097584;28;19924;-76
2021/11/16 13:01:31;;;;;;;;;;;11.20;99.90;;;;;;5096749;28;19924;-76
2021/11/16 13:03:59;;;;;;;;;;;11.20;99.90;;;;;;5095830;28;20332;-76
2021/11/16 13:06:27;;;;;;;;;;;11.20;99.90;;;;;;5097282;28;19932;-76
2021/11/16 13:08:54;;;;;;;;;;;11.30;99.90;;;;;;5097198;28;19924;-76
2021/11/16 13:11:40;;;;;;;;;;;11.20;99.90;;;;;;5097168;28;19924;-77
2021/11/16 13:14:07;;;;;;;;;;;11.30;99.90;;;;;;5097057;28;19931;-76
2021/11/16 13:16:34;;;;;;;;;;;11.30;99.90;;;;;;5097188;28;19978;-77
2021/11/16 13:19:01;;;;;;;;;;;11.30;99.90;;;;;;5096961;28;19935;-77
2021/11/16 13:21:30;;;;;;;;;;;11.40;99.90;;;;;;5096976;28;20356;-76
2021/11/16 13:23:58;;;;;;;;;;;11.40;99.90;;;;;;5097052;28;19924;-77
2021/11/16 13:26:26;;;;;;;;;;;11.30;99.90;;;;;;5096702;28;19924;-76
2021/11/16 13:29:10;;;;;;;;;;;11.40;99.90;;;;;;5097072;28;19925;-76
2021/11/16 13:31:43;;;;;;;;;;;11.40;99.90;;;;;;5096814;28;20004;-76
2021/11/16 13:34:13;;;;;;;;;;;11.40;99.90;;;;;;5096707;28;19928;-77
2021/11/16 13:36:43;;;;;;;;;;;11.30;99.90;;;;;;5097040;28;20245;-77
2021/11/16 13:39:10;;;;;;;;;;;11.30;99.90;;;;;;5096787;28;20023;-77
2021/11/16 13:41:47;;;;;;;;;;;11.30;99.90;;;;;;5096726;28;20252;-76
2021/11/16 13:44:15;;;;;;;;;;;11.30;99.90;;;;;;5096509;28;19931;-77
2021/11/16 13:46:42;;;;;;;;;;;11.30;99.90;;;;;;5096436;28;20364;-77
2021/11/16 13:49:09;;;;;;;;;;;11.30;99.90;;;;;;5096433;28;19924;-76
2021/11/16 13:51:36;;;;;;;;;;;11.30;99.90;;;;;;5096367;28;19928;-76
2021/11/16 13:54:05;;;;;;;;;;;11.20;99.90;;;;;;5096325;28;19924;-79
2021/11/16 13:56:31;;;;;;;;;;;11.20;99.90;;;;;;5096310;28;19924;-76
2021/11/16 13:58:58;;;;;;;;;;;11.20;99.90;;;;;;5095912;28;19924;-76
2021/11/16 14:01:29;;;;;;;;;;;11.20;99.90;;;;;;5095667;28;19971;-76
2021/11/16 14:04:07;;;;;;;;;;;10.10;99.90;;;;;;5095554;28;20014;-76
2021/11/16 14:06:34;;;;;;;;;;;11.20;99.90;;;;;;5096036;28;19971;-76
2021/11/16 14:09:12;;;;;;;;;;;11.20;99.90;;;;;;5096042;28;19924;-77
2021/11/16 14:11:52;;;;;;;;;;;11.10;99.90;;;;;;5095534;28;19924;-76
2021/11/16 14:14:19;;;;;;;;;;;11.10;99.90;;;;;;5095947;28;19924;-76
2021/11/16 14:16:46;;;;;;;;;;;11.20;99.90;;;;;;5095898;28;19924;-76
2021/11/16 14:19:13;;;;;;;;;;;11.10;99.90;;;;;;5093508;28;20414;-80
2021/11/16 14:21:40;;;;;;;;;;;11.10;99.90;;;;;;5093248;28;20263;-76
2021/11/16 14:24:07;;;;;;;;;;;11.20;99.90;;;;;;5095722;28;20266;-76
2021/11/16 14:26:35;;;;;;;;;;;11.10;99.90;;;;;;5092902;28;19928;-76
2021/11/16 14:29:03;;;;;;;;;;;11.10;99.90;;;;;;5095645;28;20290;-76
2021/11/16 14:31:31;;;;;;;;;;;11.10;99.90;;;;;;5095673;28;19932;-77
2021/11/16 14:33:58;;;;;;;;;;;11.10;99.90;;;;;;5095636;28;19928;-76
2021/11/16 14:36:29;;;;;;;;;;;11.10;99.90;;;;;;5095577;28;19924;-77